sensor_id;sensor_type;location;lat;lon;timestamp;P1;P2;P0
70197;PMS5003;57582;-34.876;138.628;2022-07-05T00:02:49;0.40;0.40;0.00
70197;PMS5003;57582;-34.876;138.628;2022-07-05T00:05:49;0.10;0.10;0.00
70197;PMS5003;57582;-34.876;138.628;2022-07-05T00:08:49;0.00;0.00;0.00
70197;PMS5003;57582;-34.876;138.628;2022-07-05T00:11:49;0.80;0.00;0.00
70197;PMS5003;57582;-34.876;138.628;2022-07-05T00:14:49;0.53;0.27;0.00
70197;PMS5003;57582;-34.876;138.628;2022-07-05T00:17:49;0.00;0.00;0.00
70197;PMS5003;57582;-34.876;138.628;2022-07-05T00:20:49;1.20;0.83;0.23
70197;PMS5003;57582;-34.876;138.628;2022-07-05T00:23:49;1.03;0.17;0.00
70197;PMS5003;57582;-34.876;138.628;2022-07-05T00:26:49;1.13;1.13;0.00
70197;PMS5003;57582;-34.876;138.628;2022-07-05T00:29:49;1.10;0.50;0.00
70197;PMS5003;57582;-34.876;138.628;2022-07-05T00:32:49;0.67;0.00;0.00
70197;PMS5003;57582;-34.876;138.628;2022-07-05T00:35:49;0.07;0.00;0.00
70197;PMS5003;57582;-34.876;138.628;2022-07-05T00:38:49;0.63;0.63;0.00
70197;PMS5003;57582;-34.876;138.628;2022-07-05T00:41:49;1.30;0.70;0.00
70197;PMS5003;57582;-34.876;138.628;2022-07-05T00:44:49;0.13;0.13;0.00
70197;PMS5003;57582;-34.876;138.628;2022-07-05T00:47:49;0.40;0.40;0.00
70197;PMS5003;57582;-34.876;138.628;2022-07-05T00:50:50;1.60;0.13;0.00
70197;PMS5003;57582;-34.876;138.628;2022-07-05T00:53:50;0.00;0.00;0.00
70197;PMS5003;57582;-34.876;138.628;2022-07-05T00:56:50;0.00;0.00;0.00
70197;PMS5003;57582;-34.876;138.628;2022-07-05T00:59:50;0.33;0.33;0.00
70197;PMS5003;57582;-34.876;138.628;2022-07-05T01:02:49;0.27;0.27;0.00
70197;PMS5003;57582;-34.876;138.628;2022-07-05T01:05:49;1.53;0.73;0.03
70197;PMS5003;57582;-34.876;138.628;2022-07-05T01:08:50;0.37;0.37;0.00
70197;PMS5003;57582;-34.876;138.628;2022-07-05T01:11:50;1.30;0.87;0.00
70197;PMS5003;57582;-34.876;138.628;2022-07-05T01:14:49;0.57;0.23;0.00
70197;PMS5003;57582;-34.876;138.628;2022-07-05T01:17:50;1.37;0.00;0.00
70197;PMS5003;57582;-34.876;138.628;2022-07-05T01:20:50;0.50;0.20;0.00
70197;PMS5003;57582;-34.876;138.628;2022-07-05T01:23:50;0.00;0.00;0.00
70197;PMS5003;57582;-34.876;138.628;2022-07-05T01:26:50;0.30;0.30;0.00
70197;PMS5003;57582;-34.876;138.628;2022-07-05T01:29:49;0.23;0.23;0.13
70197;PMS5003;57582;-34.876;138.628;2022-07-05T01:32:50;1.73;1.73;1.43
70197;PMS5003;57582;-34.876;138.628;2022-07-05T01:35:49;1.20;0.43;0.37
70197;PMS5003;57582;-34.876;138.628;2022-07-05T01:38:50;0.63;0.63;0.00
70197;PMS5003;57582;-34.876;138.628;2022-07-05T01:41:49;0.73;0.57;0.00
70197;PMS5003;57582;-34.876;138.628;2022-07-05T01:44:50;0.27;0.10;0.07
70197;PMS5003;57582;-34.876;138.628;2022-07-05T01:47:49;1.53;0.73;0.00
70197;PMS5003;57582;-34.876;138.628;2022-07-05T01:50:52;0.80;0.43;0.00
70197;PMS5003;57582;-34.876;138.628;2022-07-05T01:53:52;0.00;0.00;0.00
70197;PMS5003;57582;-34.876;138.628;2022-07-05T01:56:49;0.33;0.17;0.00
70197;PMS5003;57582;-34.876;138.628;2022-07-05T01:59:49;0.17;0.17;0.00
70197;PMS5003;57582;-34.876;138.628;2022-07-05T02:02:49;1.27;0.13;0.00
70197;PMS5003;57582;-34.876;138.628;2022-07-05T02:05:49;0.43;0.07;0.00
70197;PMS5003;57582;-34.876;138.628;2022-07-05T02:08:49;0.00;0.00;0.00
70197;PMS5003;57582;-34.876;138.628;2022-07-05T02:11:49;0.00;0.00;0.00
70197;PMS5003;57582;-34.876;138.628;2022-07-05T02:14:49;1.47;0.00;0.00
70197;PMS5003;57582;-34.876;138.628;2022-07-05T02:17:49;0.00;0.00;0.00
70197;PMS5003;57582;-34.876;138.628;2022-07-05T02:20:49;0.13;0.13;0.00
70197;PMS5003;57582;-34.876;138.628;2022-07-05T02:23:49;0.57;0.57;0.03
70197;PMS5003;57582;-34.876;138.628;2022-07-05T02:26:49;1.97;0.73;0.00
70197;PMS5003;57582;-34.876;138.628;2022-07-05T02:29:49;0.20;0.20;0.00
70197;PMS5003;57582;-34.876;138.628;2022-07-05T02:32:50;0.23;0.23;0.00
70197;PMS5003;57582;-34.876;138.628;2022-07-05T02:35:49;0.37;0.37;0.00
70197;PMS5003;57582;-34.876;138.628;2022-07-05T02:38:49;0.00;0.00;0.00
70197;PMS5003;57582;-34.876;138.628;2022-07-05T02:41:49;0.27;0.20;0.00
70197;PMS5003;57582;-34.876;138.628;2022-07-05T02:44:49;0.50;0.50;0.00
70197;PMS5003;57582;-34.876;138.628;2022-07-05T02:47:49;1.57;1.57;0.47
70197;PMS5003;57582;-34.876;138.628;2022-07-05T02:50:49;1.93;1.20;0.40
70197;PMS5003;57582;-34.876;138.628;2022-07-05T02:53:49;1.13;0.07;0.00
70197;PMS5003;57582;-34.876;138.628;2022-07-05T02:56:50;0.83;0.83;0.00
70197;PMS5003;57582;-34.876;138.628;2022-07-05T02:59:49;0.43;0.43;0.23
70197;PMS5003;57582;-34.876;138.628;2022-07-05T03:02:49;1.23;0.87;0.00
70197;PMS5003;57582;-34.876;138.628;2022-07-05T03:05:49;1.60;1.50;0.30
70197;PMS5003;57582;-34.876;138.628;2022-07-05T03:08:50;3.20;3.20;2.00
70197;PMS5003;57582;-34.876;138.628;2022-07-05T03:11:49;8.23;7.33;3.90
70197;PMS5003;57582;-34.876;138.628;2022-07-05T03:14:49;6.80;5.93;3.40
70197;PMS5003;57582;-34.876;138.628;2022-07-05T03:17:49;5.47;4.77;2.07
70197;PMS5003;57582;-34.876;138.628;2022-07-05T03:20:50;4.17;4.17;2.53
70197;PMS5003;57582;-34.876;138.628;2022-07-05T03:23:49;5.00;3.63;1.90
70197;PMS5003;57582;-34.876;138.628;2022-07-05T03:26:49;2.33;2.33;1.00
70197;PMS5003;57582;-34.876;138.628;2022-07-05T03:29:49;4.33;4.33;2.37
70197;PMS5003;57582;-34.876;138.628;2022-07-05T03:32:50;6.03;4.77;2.77
70197;PMS5003;57582;-34.876;138.628;2022-07-05T03:35:49;3.73;3.17;1.90
70197;PMS5003;57582;-34.876;138.628;2022-07-05T03:38:49;3.00;2.63;1.37
70197;PMS5003;57582;-34.876;138.628;2022-07-05T03:41:49;3.83;2.50;1.00
70197;PMS5003;57582;-34.876;138.628;2022-07-05T03:44:49;3.57;2.90;1.77
70197;PMS5003;57582;-34.876;138.628;2022-07-05T03:47:49;4.57;2.87;1.63
70197;PMS5003;57582;-34.876;138.628;2022-07-05T03:50:49;5.90;4.40;2.67
70197;PMS5003;57582;-34.876;138.628;2022-07-05T03:53:49;2.83;2.83;2.10
70197;PMS5003;57582;-34.876;138.628;2022-07-05T03:56:50;3.70;3.70;1.33
70197;PMS5003;57582;-34.876;138.628;2022-07-05T03:59:49;8.77;8.27;5.97
70197;PMS5003;57582;-34.876;138.628;2022-07-05T04:02:49;10.13;10.13;6.20
70197;PMS5003;57582;-34.876;138.628;2022-07-05T04:05:49;11.03;9.70;5.83
70197;PMS5003;57582;-34.876;138.628;2022-07-05T04:08:50;5.93;4.73;2.33
70197;PMS5003;57582;-34.876;138.628;2022-07-05T04:11:49;3.93;3.93;1.87
70197;PMS5003;57582;-34.876;138.628;2022-07-05T04:14:49;7.60;5.50;3.47
70197;PMS5003;57582;-34.876;138.628;2022-07-05T04:17:54;10.37;9.67;5.40
70197;PMS5003;57582;-34.876;138.628;2022-07-05T04:20:49;8.47;8.00;4.87
70197;PMS5003;57582;-34.876;138.628;2022-07-05T04:23:49;7.83;6.90;4.77
70197;PMS5003;57582;-34.876;138.628;2022-07-05T04:26:49;8.20;7.90;5.07
70197;PMS5003;57582;-34.876;138.628;2022-07-05T04:29:49;7.03;6.07;3.93
70197;PMS5003;57582;-34.876;138.628;2022-07-05T04:32:50;4.70;4.23;2.70
70197;PMS5003;57582;-34.876;138.628;2022-07-05T04:35:49;5.67;4.60;3.03
70197;PMS5003;57582;-34.876;138.628;2022-07-05T04:38:49;6.77;6.77;4.47
70197;PMS5003;57582;-34.876;138.628;2022-07-05T04:41:49;8.23;6.67;4.70
70197;PMS5003;57582;-34.876;138.628;2022-07-05T04:44:50;8.07;8.07;4.73
70197;PMS5003;57582;-34.876;138.628;2022-07-05T04:47:49;8.33;5.90;3.80
70197;PMS5003;57582;-34.876;138.628;2022-07-05T04:50:49;7.77;7.47;5.87
70197;PMS5003;57582;-34.876;138.628;2022-07-05T04:53:49;8.23;7.07;4.20
70197;PMS5003;57582;-34.876;138.628;2022-07-05T04:56:50;5.77;4.90;2.77
70197;PMS5003;57582;-34.876;138.628;2022-07-05T04:59:49;4.60;4.13;2.30
70197;PMS5003;57582;-34.876;138.628;2022-07-05T05:02:49;4.23;4.23;2.83
70197;PMS5003;57582;-34.876;138.628;2022-07-05T05:05:49;3.10;2.53;1.83
70197;PMS5003;57582;-34.876;138.628;2022-07-05T05:08:50;1.83;1.83;1.13
70197;PMS5003;57582;-34.876;138.628;2022-07-05T05:11:50;2.33;1.77;1.00
70197;PMS5003;57582;-34.876;138.628;2022-07-05T05:14:50;0.87;0.70;0.17
70197;PMS5003;57582;-34.876;138.628;2022-07-05T05:17:49;3.13;1.00;0.27
70197;PMS5003;57582;-34.876;138.628;2022-07-05T05:20:50;1.47;0.77;0.03
70197;PMS5003;57582;-34.876;138.628;2022-07-05T05:29:49;0.43;0.43;0.00
70197;PMS5003;57582;-34.876;138.628;2022-07-05T05:32:50;1.07;1.00;0.57
70197;PMS5003;57582;-34.876;138.628;2022-07-05T05:35:49;2.10;0.67;0.20
70197;PMS5003;57582;-34.876;138.628;2022-07-05T05:38:49;2.17;1.30;0.73
70197;PMS5003;57582;-34.876;138.628;2022-07-05T05:41:49;2.60;1.73;0.77
70197;PMS5003;57582;-34.876;138.628;2022-07-05T05:44:50;2.97;2.30;1.07
70197;PMS5003;57582;-34.876;138.628;2022-07-05T05:47:54;1.73;1.73;0.47
70197;PMS5003;57582;-34.876;138.628;2022-07-05T05:50:49;3.07;3.07;1.67
70197;PMS5003;57582;-34.876;138.628;2022-07-05T05:53:49;4.70;4.30;3.03
70197;PMS5003;57582;-34.876;138.628;2022-07-05T05:56:50;6.50;5.37;3.47
70197;PMS5003;57582;-34.876;138.628;2022-07-05T05:59:49;6.13;4.30;3.07
70197;PMS5003;57582;-34.876;138.628;2022-07-05T06:02:50;6.20;5.97;4.17
70197;PMS5003;57582;-34.876;138.628;2022-07-05T06:05:49;7.87;7.53;4.73
70197;PMS5003;57582;-34.876;138.628;2022-07-05T06:08:50;13.97;13.43;9.83
70197;PMS5003;57582;-34.876;138.628;2022-07-05T06:11:49;19.20;18.70;14.53
70197;PMS5003;57582;-34.876;138.628;2022-07-05T06:14:49;16.97;16.23;11.83
70197;PMS5003;57582;-34.876;138.628;2022-07-05T06:17:49;22.80;21.83;14.87
70197;PMS5003;57582;-34.876;138.628;2022-07-05T06:20:50;21.47;19.70;12.90
70197;PMS5003;57582;-34.876;138.628;2022-07-05T06:23:49;17.40;17.10;11.20
70197;PMS5003;57582;-34.876;138.628;2022-07-05T06:26:50;19.57;15.50;10.30
70197;PMS5003;57582;-34.876;138.628;2022-07-05T06:29:49;16.83;15.67;11.40
70197;PMS5003;57582;-34.876;138.628;2022-07-05T06:32:51;18.07;16.97;11.77
70197;PMS5003;57582;-34.876;138.628;2022-07-05T06:35:49;16.53;15.73;10.63
70197;PMS5003;57582;-34.876;138.628;2022-07-05T06:38:50;22.57;19.43;14.20
70197;PMS5003;57582;-34.876;138.628;2022-07-05T06:41:49;21.87;20.00;14.50
70197;PMS5003;57582;-34.876;138.628;2022-07-05T06:44:49;20.77;19.53;14.70
70197;PMS5003;57582;-34.876;138.628;2022-07-05T06:47:59;23.83;21.13;14.37
70197;PMS5003;57582;-34.876;138.628;2022-07-05T06:50:50;25.43;22.70;15.83
70197;PMS5003;57582;-34.876;138.628;2022-07-05T06:53:49;23.43;22.03;15.97
70197;PMS5003;57582;-34.876;138.628;2022-07-05T06:56:49;23.97;23.63;17.60
70197;PMS5003;57582;-34.876;138.628;2022-07-05T06:59:51;21.70;19.30;14.60
70197;PMS5003;57582;-34.876;138.628;2022-07-05T07:02:50;13.70;13.70;9.47
70197;PMS5003;57582;-34.876;138.628;2022-07-05T07:05:49;10.83;10.53;8.07
70197;PMS5003;57582;-34.876;138.628;2022-07-05T07:08:50;9.57;9.20;5.40
70197;PMS5003;57582;-34.876;138.628;2022-07-05T07:11:49;10.80;9.90;6.43
70197;PMS5003;57582;-34.876;138.628;2022-07-05T07:14:49;8.87;7.73;4.50
70197;PMS5003;57582;-34.876;138.628;2022-07-05T07:17:49;16.30;14.83;9.23
70197;PMS5003;57582;-34.876;138.628;2022-07-05T07:20:50;19.67;18.97;13.17
70197;PMS5003;57582;-34.876;138.628;2022-07-05T07:23:49;25.03;23.17;16.60
70197;PMS5003;57582;-34.876;138.628;2022-07-05T07:26:50;19.90;19.70;16.40
70197;PMS5003;57582;-34.876;138.628;2022-07-05T07:29:49;20.17;19.43;14.50
70197;PMS5003;57582;-34.876;138.628;2022-07-05T07:32:50;17.17;16.40;10.43
70197;PMS5003;57582;-34.876;138.628;2022-07-05T07:35:50;11.43;10.83;7.77
70197;PMS5003;57582;-34.876;138.628;2022-07-05T07:38:50;5.03;5.03;2.90
70197;PMS5003;57582;-34.876;138.628;2022-07-05T07:41:50;9.17;4.33;2.77
70197;PMS5003;57582;-34.876;138.628;2022-07-05T07:44:50;4.67;3.23;2.53
70197;PMS5003;57582;-34.876;138.628;2022-07-05T07:47:49;5.57;5.57;3.47
70197;PMS5003;57582;-34.876;138.628;2022-07-05T07:50:50;5.20;4.70;2.93
70197;PMS5003;57582;-34.876;138.628;2022-07-05T07:53:49;2.20;2.20;1.60
70197;PMS5003;57582;-34.876;138.628;2022-07-05T07:56:50;5.57;3.83;2.60
70197;PMS5003;57582;-34.876;138.628;2022-07-05T07:59:49;4.20;4.20;2.20
70197;PMS5003;57582;-34.876;138.628;2022-07-05T08:02:50;6.53;4.80;2.27
70197;PMS5003;57582;-34.876;138.628;2022-07-05T08:05:49;4.73;4.07;3.10
70197;PMS5003;57582;-34.876;138.628;2022-07-05T08:08:50;7.13;7.13;4.00
70197;PMS5003;57582;-34.876;138.628;2022-07-05T08:11:49;6.10;4.77;3.83
70197;PMS5003;57582;-34.876;138.628;2022-07-05T08:14:50;8.50;8.30;4.20
70197;PMS5003;57582;-34.876;138.628;2022-07-05T08:17:49;9.60;9.60;7.37
70197;PMS5003;57582;-34.876;138.628;2022-07-05T08:20:50;8.27;8.27;5.20
70197;PMS5003;57582;-34.876;138.628;2022-07-05T08:23:49;7.90;7.33;5.03
70197;PMS5003;57582;-34.876;138.628;2022-07-05T08:26:50;11.90;11.20;6.73
70197;PMS5003;57582;-34.876;138.628;2022-07-05T08:29:50;9.77;7.67;5.13
70197;PMS5003;57582;-34.876;138.628;2022-07-05T08:32:50;9.83;9.83;6.23
70197;PMS5003;57582;-34.876;138.628;2022-07-05T08:35:50;11.87;10.30;7.17
70197;PMS5003;57582;-34.876;138.628;2022-07-05T08:38:50;10.90;10.27;7.03
70197;PMS5003;57582;-34.876;138.628;2022-07-05T08:41:51;17.50;13.97;9.30
70197;PMS5003;57582;-34.876;138.628;2022-07-05T08:44:51;13.30;11.77;9.23
70197;PMS5003;57582;-34.876;138.628;2022-07-05T08:47:51;16.57;15.43;10.83
70197;PMS5003;57582;-34.876;138.628;2022-07-05T08:50:51;14.47;13.07;8.87
70197;PMS5003;57582;-34.876;138.628;2022-07-05T08:53:52;12.43;11.27;8.93
70197;PMS5003;57582;-34.876;138.628;2022-07-05T08:56:51;13.77;13.77;8.83
70197;PMS5003;57582;-34.876;138.628;2022-07-05T08:59:49;10.50;9.87;6.43
70197;PMS5003;57582;-34.876;138.628;2022-07-05T09:02:51;12.53;12.53;9.10
70197;PMS5003;57582;-34.876;138.628;2022-07-05T09:05:50;12.00;12.00;7.97
70197;PMS5003;57582;-34.876;138.628;2022-07-05T09:08:54;14.30;13.37;8.47
70197;PMS5003;57582;-34.876;138.628;2022-07-05T09:11:49;16.80;14.30;10.33
70197;PMS5003;57582;-34.876;138.628;2022-07-05T09:14:51;18.90;15.80;11.07
70197;PMS5003;57582;-34.876;138.628;2022-07-05T09:17:50;19.07;17.30;12.03
70197;PMS5003;57582;-34.876;138.628;2022-07-05T09:20:50;15.67;15.67;11.37
70197;PMS5003;57582;-34.876;138.628;2022-07-05T09:23:56;19.87;18.80;12.87
70197;PMS5003;57582;-34.876;138.628;2022-07-05T09:26:50;18.73;18.67;13.23
70197;PMS5003;57582;-34.876;138.628;2022-07-05T09:29:57;18.03;16.43;13.40
70197;PMS5003;57582;-34.876;138.628;2022-07-05T09:33:03;31.33;27.60;19.57
70197;PMS5003;57582;-34.876;138.628;2022-07-05T09:35:55;24.50;23.40;16.77
70197;PMS5003;57582;-34.876;138.628;2022-07-05T09:38:50;27.50;25.67;16.97
70197;PMS5003;57582;-34.876;138.628;2022-07-05T09:41:49;25.43;24.97;17.10
70197;PMS5003;57582;-34.876;138.628;2022-07-05T09:44:52;26.77;24.13;16.80
70197;PMS5003;57582;-34.876;138.628;2022-07-05T09:47:50;26.17;25.07;18.40
70197;PMS5003;57582;-34.876;138.628;2022-07-05T09:50:50;22.40;22.20;14.93
70197;PMS5003;57582;-34.876;138.628;2022-07-05T09:53:53;27.03;24.87;16.47
70197;PMS5003;57582;-34.876;138.628;2022-07-05T09:56:51;23.87;23.70;17.40
70197;PMS5003;57582;-34.876;138.628;2022-07-05T10:00:00;22.20;20.90;16.07
70197;PMS5003;57582;-34.876;138.628;2022-07-05T10:02:52;24.90;21.40;14.67
70197;PMS5003;57582;-34.876;138.628;2022-07-05T10:05:50;19.13;19.13;13.23
70197;PMS5003;57582;-34.876;138.628;2022-07-05T10:08:52;24.23;22.00;16.20
70197;PMS5003;57582;-34.876;138.628;2022-07-05T10:11:50;23.20;22.13;14.57
70197;PMS5003;57582;-34.876;138.628;2022-07-05T10:14:51;24.40;21.03;13.80
70197;PMS5003;57582;-34.876;138.628;2022-07-05T10:18:00;25.53;24.60;17.90
70197;PMS5003;57582;-34.876;138.628;2022-07-05T10:20:50;24.13;21.43;15.80
70197;PMS5003;57582;-34.876;138.628;2022-07-05T10:23:52;23.70;20.77;12.33
70197;PMS5003;57582;-34.876;138.628;2022-07-05T10:26:50;20.70;19.53;13.60
70197;PMS5003;57582;-34.876;138.628;2022-07-05T10:29:50;14.67;13.37;8.40
70197;PMS5003;57582;-34.876;138.628;2022-07-05T10:32:51;13.93;13.33;8.43
70197;PMS5003;57582;-34.876;138.628;2022-07-05T10:35:50;16.07;14.33;9.73
70197;PMS5003;57582;-34.876;138.628;2022-07-05T10:38:51;15.10;15.10;10.27
70197;PMS5003;57582;-34.876;138.628;2022-07-05T10:41:50;19.27;15.13;12.23
70197;PMS5003;57582;-34.876;138.628;2022-07-05T10:44:50;14.73;14.20;10.13
70197;PMS5003;57582;-34.876;138.628;2022-07-05T10:54:00;18.83;17.53;11.17
70197;PMS5003;57582;-34.876;138.628;2022-07-05T11:00:15;15.10;14.50;11.77
70197;PMS5003;57582;-34.876;138.628;2022-07-05T11:03:08;18.37;16.90;11.63
70197;PMS5003;57582;-34.876;138.628;2022-07-05T11:05:50;18.03;16.83;11.87
70197;PMS5003;57582;-34.876;138.628;2022-07-05T11:14:50;21.33;19.93;13.73
70197;PMS5003;57582;-34.876;138.628;2022-07-05T11:17:50;19.47;18.77;14.37
70197;PMS5003;57582;-34.876;138.628;2022-07-05T11:23:50;16.60;15.67;12.00
70197;PMS5003;57582;-34.876;138.628;2022-07-05T11:26:53;22.47;20.53;14.67
70197;PMS5003;57582;-34.876;138.628;2022-07-05T11:29:52;15.57;13.87;9.07
70197;PMS5003;57582;-34.876;138.628;2022-07-05T11:32:50;21.10;21.10;14.60
70197;PMS5003;57582;-34.876;138.628;2022-07-05T11:35:50;22.17;20.97;15.57
70197;PMS5003;57582;-34.876;138.628;2022-07-05T11:41:50;39.93;35.63;23.53
70197;PMS5003;57582;-34.876;138.628;2022-07-05T11:44:50;33.57;31.07;21.53
70197;PMS5003;57582;-34.876;138.628;2022-07-05T11:47:54;37.83;34.80;24.13
70197;PMS5003;57582;-34.876;138.628;2022-07-05T11:50:50;33.87;31.60;22.53
70197;PMS5003;57582;-34.876;138.628;2022-07-05T11:53:50;33.53;32.73;21.70
70197;PMS5003;57582;-34.876;138.628;2022-07-05T11:56:52;36.33;34.60;24.20
70197;PMS5003;57582;-34.876;138.628;2022-07-05T11:59:50;32.03;31.40;22.70
70197;PMS5003;57582;-34.876;138.628;2022-07-05T12:02:50;35.17;34.23;23.37
70197;PMS5003;57582;-34.876;138.628;2022-07-05T12:05:50;31.87;30.57;20.70
70197;PMS5003;57582;-34.876;138.628;2022-07-05T12:09:01;29.27;27.27;20.17
70197;PMS5003;57582;-34.876;138.628;2022-07-05T12:11:50;29.40;29.10;19.50
70197;PMS5003;57582;-34.876;138.628;2022-07-05T12:14:51;23.67;22.57;15.47
70197;PMS5003;57582;-34.876;138.628;2022-07-05T12:17:50;28.97;26.83;17.17
70197;PMS5003;57582;-34.876;138.628;2022-07-05T12:20:50;25.60;23.77;15.33
70197;PMS5003;57582;-34.876;138.628;2022-07-05T12:23:50;23.83;22.33;17.23
70197;PMS5003;57582;-34.876;138.628;2022-07-05T12:26:50;30.10;29.00;20.10
70197;PMS5003;57582;-34.876;138.628;2022-07-05T12:29:50;32.60;30.33;22.27
70197;PMS5003;57582;-34.876;138.628;2022-07-05T12:35:50;33.77;30.37;20.87
70197;PMS5003;57582;-34.876;138.628;2022-07-05T12:38:58;32.87;31.83;22.87
70197;PMS5003;57582;-34.876;138.628;2022-07-05T12:41:50;35.07;34.40;23.63
70197;PMS5003;57582;-34.876;138.628;2022-07-05T12:44:50;29.17;27.50;21.23
70197;PMS5003;57582;-34.876;138.628;2022-07-05T12:47:52;35.53;34.10;23.93
70197;PMS5003;57582;-34.876;138.628;2022-07-05T12:50:51;28.13;27.90;20.97
70197;PMS5003;57582;-34.876;138.628;2022-07-05T12:53:50;32.23;31.77;23.27
70197;PMS5003;57582;-34.876;138.628;2022-07-05T12:56:53;31.33;30.60;23.33
70197;PMS5003;57582;-34.876;138.628;2022-07-05T13:00:01;26.67;26.67;19.27
70197;PMS5003;57582;-34.876;138.628;2022-07-05T13:02:50;36.97;33.13;22.87
70197;PMS5003;57582;-34.876;138.628;2022-07-05T13:06:00;33.50;31.07;21.67
70197;PMS5003;57582;-34.876;138.628;2022-07-05T13:08:59;30.13;28.10;21.23
70197;PMS5003;57582;-34.876;138.628;2022-07-05T13:11:50;34.17;30.83;22.50
70197;PMS5003;57582;-34.876;138.628;2022-07-05T13:14:52;36.87;33.43;24.20
70197;PMS5003;57582;-34.876;138.628;2022-07-05T13:17:50;35.67;33.57;23.43
70197;PMS5003;57582;-34.876;138.628;2022-07-05T13:20:50;30.73;29.40;21.30
70197;PMS5003;57582;-34.876;138.628;2022-07-05T13:23:50;32.23;32.23;22.40
70197;PMS5003;57582;-34.876;138.628;2022-07-05T13:26:50;23.13;22.30;17.07
70197;PMS5003;57582;-34.876;138.628;2022-07-05T13:29:50;25.63;24.20;18.00
70197;PMS5003;57582;-34.876;138.628;2022-07-05T13:32:50;34.40;32.50;21.80
70197;PMS5003;57582;-34.876;138.628;2022-07-05T13:35:50;29.47;27.40;20.80
70197;PMS5003;57582;-34.876;138.628;2022-07-05T13:38:50;29.37;29.03;20.47
70197;PMS5003;57582;-34.876;138.628;2022-07-05T13:41:52;26.47;22.50;16.63
70197;PMS5003;57582;-34.876;138.628;2022-07-05T13:44:50;27.33;24.73;16.90
70197;PMS5003;57582;-34.876;138.628;2022-07-05T13:47:50;31.60;28.97;20.80
70197;PMS5003;57582;-34.876;138.628;2022-07-05T13:50:50;26.43;25.43;18.10
70197;PMS5003;57582;-34.876;138.628;2022-07-05T13:53:50;33.03;31.90;22.17
70197;PMS5003;57582;-34.876;138.628;2022-07-05T13:56:50;28.10;26.87;19.57
70197;PMS5003;57582;-34.876;138.628;2022-07-05T13:59:50;30.93;29.67;21.43
70197;PMS5003;57582;-34.876;138.628;2022-07-05T14:02:50;38.77;32.33;24.33
70197;PMS5003;57582;-34.876;138.628;2022-07-05T14:05:50;31.77;31.77;23.73
70197;PMS5003;57582;-34.876;138.628;2022-07-05T14:08:51;37.90;35.40;24.53
70197;PMS5003;57582;-34.876;138.628;2022-07-05T14:11:50;33.47;32.17;23.60
70197;PMS5003;57582;-34.876;138.628;2022-07-05T14:14:50;36.93;36.83;24.83
70197;PMS5003;57582;-34.876;138.628;2022-07-05T14:17:50;38.43;38.30;26.40
70197;PMS5003;57582;-34.876;138.628;2022-07-05T14:20:51;37.00;32.30;21.50
70197;PMS5003;57582;-34.876;138.628;2022-07-05T14:23:50;34.83;33.17;25.23
70197;PMS5003;57582;-34.876;138.628;2022-07-05T14:26:50;36.57;32.60;22.43
70197;PMS5003;57582;-34.876;138.628;2022-07-05T14:29:50;32.77;30.43;21.90
70197;PMS5003;57582;-34.876;138.628;2022-07-05T14:32:50;31.83;31.63;24.43
70197;PMS5003;57582;-34.876;138.628;2022-07-05T14:35:50;26.37;25.90;18.47
70197;PMS5003;57582;-34.876;138.628;2022-07-05T14:38:51;39.53;36.37;25.67
70197;PMS5003;57582;-34.876;138.628;2022-07-05T14:41:50;35.03;31.97;22.13
70197;PMS5003;57582;-34.876;138.628;2022-07-05T14:44:50;32.70;31.17;22.27
70197;PMS5003;57582;-34.876;138.628;2022-07-05T14:47:50;37.67;36.03;24.40
70197;PMS5003;57582;-34.876;138.628;2022-07-05T14:50:51;30.50;29.70;20.80
70197;PMS5003;57582;-34.876;138.628;2022-07-05T14:53:50;31.63;28.17;21.70
70197;PMS5003;57582;-34.876;138.628;2022-07-05T14:56:50;29.03;27.43;20.20
70197;PMS5003;57582;-34.876;138.628;2022-07-05T14:59:50;34.33;33.40;23.17
70197;PMS5003;57582;-34.876;138.628;2022-07-05T15:02:50;31.77;30.00;20.90
70197;PMS5003;57582;-34.876;138.628;2022-07-05T15:05:51;31.63;29.43;20.27
70197;PMS5003;57582;-34.876;138.628;2022-07-05T15:08:50;36.70;34.77;25.40
70197;PMS5003;57582;-34.876;138.628;2022-07-05T15:11:50;36.30;34.87;24.57
70197;PMS5003;57582;-34.876;138.628;2022-07-05T15:14:51;32.97;32.67;23.40
70197;PMS5003;57582;-34.876;138.628;2022-07-05T15:17:50;30.57;30.13;23.73
70197;PMS5003;57582;-34.876;138.628;2022-07-05T15:20:51;40.27;37.03;25.97
70197;PMS5003;57582;-34.876;138.628;2022-07-05T15:23:50;50.37;43.73;29.37
70197;PMS5003;57582;-34.876;138.628;2022-07-05T15:26:51;39.57;36.53;25.63
70197;PMS5003;57582;-34.876;138.628;2022-07-05T15:29:50;45.73;40.60;27.27
70197;PMS5003;57582;-34.876;138.628;2022-07-05T15:32:50;38.60;35.10;23.53
70197;PMS5003;57582;-34.876;138.628;2022-07-05T15:35:50;40.80;34.97;26.40
70197;PMS5003;57582;-34.876;138.628;2022-07-05T15:38:51;38.03;35.60;24.13
70197;PMS5003;57582;-34.876;138.628;2022-07-05T15:41:50;38.03;36.43;25.47
70197;PMS5003;57582;-34.876;138.628;2022-07-05T15:44:51;34.67;33.50;23.30
70197;PMS5003;57582;-34.876;138.628;2022-07-05T15:47:50;32.33;31.37;23.30
70197;PMS5003;57582;-34.876;138.628;2022-07-05T15:50:51;38.93;36.50;24.67
70197;PMS5003;57582;-34.876;138.628;2022-07-05T15:53:50;38.63;37.90;28.03
70197;PMS5003;57582;-34.876;138.628;2022-07-05T15:56:50;35.97;34.97;24.77
70197;PMS5003;57582;-34.876;138.628;2022-07-05T15:59:50;41.80;38.43;27.13
70197;PMS5003;57582;-34.876;138.628;2022-07-05T16:02:51;39.00;35.07;24.83
70197;PMS5003;57582;-34.876;138.628;2022-07-05T16:05:50;40.20;35.67;25.60
70197;PMS5003;57582;-34.876;138.628;2022-07-05T16:08:51;40.37;38.03;27.57
70197;PMS5003;57582;-34.876;138.628;2022-07-05T16:11:51;31.30;30.13;22.60
70197;PMS5003;57582;-34.876;138.628;2022-07-05T16:14:51;39.50;36.70;25.93
70197;PMS5003;57582;-34.876;138.628;2022-07-05T16:17:50;35.93;33.57;23.37
70197;PMS5003;57582;-34.876;138.628;2022-07-05T16:20:50;35.47;32.40;23.70
70197;PMS5003;57582;-34.876;138.628;2022-07-05T16:23:50;39.70;36.03;24.73
70197;PMS5003;57582;-34.876;138.628;2022-07-05T16:26:51;33.70;31.00;23.83
70197;PMS5003;57582;-34.876;138.628;2022-07-05T16:29:50;35.70;33.47;23.40
70197;PMS5003;57582;-34.876;138.628;2022-07-05T16:32:50;34.43;31.90;22.57
70197;PMS5003;57582;-34.876;138.628;2022-07-05T16:35:50;33.73;32.53;21.70
70197;PMS5003;57582;-34.876;138.628;2022-07-05T16:38:52;41.13;36.67;25.60
70197;PMS5003;57582;-34.876;138.628;2022-07-05T16:41:50;35.57;33.00;24.23
70197;PMS5003;57582;-34.876;138.628;2022-07-05T16:44:50;34.17;33.30;24.40
70197;PMS5003;57582;-34.876;138.628;2022-07-05T16:47:50;36.07;33.17;23.67
70197;PMS5003;57582;-34.876;138.628;2022-07-05T16:50:50;34.50;32.90;24.60
70197;PMS5003;57582;-34.876;138.628;2022-07-05T16:53:53;34.70;31.20;21.97
70197;PMS5003;57582;-34.876;138.628;2022-07-05T16:56:50;34.43;32.07;22.27